createdAt,value
2022-11-14T00:00:46.132Z,6.15
2022-11-14T00:00:52.002Z,5.63
2022-11-14T00:03:31.676Z,6.03
2022-11-14T00:03:38.033Z,4.90
2022-11-14T00:06:17.319Z,5.68
2022-11-14T00:09:02.847Z,5.68
2022-11-14T00:09:09.597Z,5.68
2022-11-14T00:11:48.454Z,5.95
2022-11-14T00:14:33.829Z,6.25
2022-11-14T00:14:41.803Z,5.38
2022-11-14T00:17:19.349Z,5.95
2022-11-14T00:17:27.975Z,4.90
2022-11-14T00:22:51.591Z,5.88
2022-11-14T00:23:00.210Z,5.22
2022-11-14T00:25:47.359Z,5.10
2022-11-14T00:28:22.698Z,5.50
2022-11-14T00:28:34.001Z,5.20
2022-11-14T00:31:10.192Z,5.97
2022-11-14T00:33:55.889Z,6.30
2022-11-14T00:34:06.229Z,5.50
2022-11-14T00:36:41.527Z,6.25
2022-11-14T00:36:52.144Z,5.10
2022-11-14T00:39:27.040Z,5.80
2022-11-14T00:39:38.294Z,5.50
2022-11-14T00:42:12.678Z,6.15
2022-11-14T00:42:24.507Z,5.38
2022-11-14T00:44:58.125Z,6.20
2022-11-14T00:45:10.915Z,5.43
2022-11-14T00:47:43.562Z,5.93
2022-11-14T00:50:29.282Z,6.43
2022-11-14T00:50:43.551Z,5.00
2022-11-14T00:53:29.815Z,5.15
2022-11-14T00:56:00.120Z,6.03
2022-11-14T00:56:15.736Z,5.28
2022-11-14T00:58:45.515Z,6.38
2022-11-14T00:59:01.615Z,5.47
2022-11-14T01:01:30.852Z,6.95
2022-11-14T01:01:47.707Z,4.88
2022-11-14T01:04:16.302Z,6.10
2022-11-14T01:04:33.806Z,5.20
2022-11-14T01:07:01.703Z,6.57
2022-11-14T01:07:20.038Z,5.50
2022-11-14T01:10:06.379Z,5.57
2022-11-14T01:12:34.597Z,7.10
2022-11-14T01:12:52.563Z,5.25
2022-11-14T01:15:19.999Z,7.18
2022-11-14T01:15:49.051Z,5.38
2022-11-14T01:18:05.517Z,7.30
2022-11-14T01:18:35.244Z,5.53
2022-11-14T01:20:50.904Z,7.03
2022-11-14T01:21:21.379Z,5.82
2022-11-14T01:23:36.777Z,7.53
2022-11-14T01:26:22.171Z,7.38
2022-11-14T01:29:07.576Z,7.70
2022-11-14T01:29:41.116Z,5.30
2022-11-14T01:31:53.122Z,7.05
2022-11-14T01:34:38.340Z,8.23
2022-11-14T01:35:13.327Z,5.68
2022-11-14T01:37:23.876Z,7.90
2022-11-14T01:37:59.289Z,5.80
2022-11-14T01:40:10.023Z,8.80
2022-11-14T01:40:45.821Z,5.63
2022-11-14T01:43:10.908Z,8.40
2022-11-14T01:43:35.211Z,5.90
2022-11-14T01:46:02.759Z,8.35
2022-11-14T01:46:24.176Z,5.60
2022-11-14T01:48:56.108Z,8.23
2022-11-14T01:49:18.505Z,5.72
2022-11-14T01:51:50.151Z,8.88
2022-11-14T01:52:08.983Z,6.00
2022-11-14T01:54:38.647Z,8.73
2022-11-14T01:54:58.640Z,6.30
2022-11-14T01:57:33.556Z,8.88
2022-11-14T01:57:47.220Z,5.95
2022-11-14T02:00:19.250Z,8.65
2022-11-14T02:00:33.025Z,7.03
2022-11-14T02:03:04.531Z,9.00
2022-11-14T02:03:19.792Z,6.50
2022-11-14T02:05:52.157Z,9.25
2022-11-14T02:06:07.737Z,6.30
2022-11-14T02:08:38.848Z,9.00
2022-11-14T02:08:54.765Z,6.20
2022-11-14T02:11:24.726Z,9.07
2022-11-14T02:11:42.765Z,6.47
2022-11-14T02:14:29.908Z,6.95
2022-11-14T02:17:22.801Z,9.27
2022-11-14T02:17:32.201Z,7.00
2022-11-14T02:20:11.341Z,9.45
2022-11-14T02:20:22.730Z,7.45
2022-11-14T02:22:57.090Z,8.77
2022-11-14T02:23:09.463Z,7.22
2022-11-14T02:25:42.550Z,10.13
2022-11-14T02:25:56.010Z,7.60
2022-11-14T02:28:28.890Z,9.85
2022-11-14T02:28:41.845Z,7.10
2022-11-14T02:31:15.917Z,9.90
2022-11-14T02:31:27.835Z,7.13
2022-11-14T02:34:01.525Z,10.18
2022-11-14T02:34:16.766Z,7.57
2022-11-14T02:36:47.366Z,9.20
2022-11-14T02:37:03.094Z,8.20
2022-11-14T02:39:32.732Z,9.60
2022-11-14T02:42:18.059Z,10.10
2022-11-14T02:42:35.507Z,7.75
2022-11-14T02:45:04.002Z,9.93
2022-11-14T02:45:21.705Z,7.72
2022-11-14T02:47:49.492Z,9.73
2022-11-14T02:50:35.280Z,10.50
2022-11-14T02:50:53.924Z,8.27
2022-11-14T02:53:21.031Z,9.55
2022-11-14T02:53:39.785Z,8.25
2022-11-14T02:56:25.800Z,8.02
2022-11-14T02:58:52.322Z,9.82
2022-11-14T02:59:11.695Z,7.95
2022-11-14T03:01:37.769Z,10.55
2022-11-14T03:01:57.993Z,7.90
2022-11-14T03:04:23.207Z,9.30
2022-11-14T03:07:08.647Z,10.38
2022-11-14T03:07:31.143Z,7.80
2022-11-14T03:09:53.903Z,10.38
2022-11-14T03:12:39.630Z,10.48
2022-11-14T03:13:03.096Z,8.35
2022-11-14T03:15:49.315Z,8.68
2022-11-14T03:18:10.712Z,10.48
2022-11-14T03:18:35.711Z,8.77
2022-11-14T03:21:22.815Z,8.27
2022-11-14T03:23:42.066Z,9.82
2022-11-14T03:24:09.015Z,8.32
2022-11-14T03:26:27.517Z,11.32
2022-11-14T03:26:55.154Z,9.13
2022-11-14T03:29:13.138Z,10.65
2022-11-14T03:29:40.966Z,8.43
2022-11-14T03:31:58.596Z,10.32
2022-11-14T03:32:27.032Z,9.52
2022-11-14T03:34:43.942Z,11.07
2022-11-14T03:35:13.009Z,9.30
2022-11-14T03:37:29.295Z,11.50
2022-11-14T03:37:58.995Z,9.27
2022-11-14T03:40:14.786Z,11.20
2022-11-14T03:40:45.445Z,9.10
2022-11-14T03:43:00.047Z,11.43
2022-11-14T03:43:33.571Z,9.73
2022-11-14T03:45:46.271Z,11.52
2022-11-14T03:46:19.639Z,9.20
2022-11-14T03:48:32.338Z,11.80
2022-11-14T03:51:18.273Z,11.40
2022-11-14T03:51:51.586Z,9.52
2022-11-14T03:54:04.049Z,11.48
2022-11-14T03:54:38.046Z,9.20
2022-11-14T03:57:24.239Z,9.10
2022-11-14T03:59:35.589Z,11.57
2022-11-14T04:00:10.792Z,9.07
2022-11-14T04:02:20.878Z,10.98
2022-11-14T04:02:58.318Z,9.65
2022-11-14T04:05:06.492Z,11.95
2022-11-14T04:05:47.313Z,9.38
2022-11-14T04:08:33.848Z,9.68
2022-11-14T04:10:37.469Z,11.73
2022-11-14T04:11:20.204Z,10.43
2022-11-14T04:13:23.058Z,11.65
2022-11-14T04:14:06.535Z,9.75
2022-11-14T04:16:08.429Z,11.52
2022-11-14T04:19:38.697Z,9.80
2022-11-14T04:21:39.506Z,12.10
2022-11-14T04:22:24.584Z,10.55
2022-11-14T04:24:24.913Z,11.70
2022-11-14T04:25:10.552Z,10.32
2022-11-14T04:27:10.611Z,11.70
2022-11-14T04:27:56.320Z,10.60
2022-11-14T04:30:42.518Z,11.00
2022-11-14T04:32:41.645Z,11.18
2022-11-14T04:35:27.120Z,12.95
2022-11-14T04:38:12.490Z,11.90
2022-11-14T04:39:00.806Z,10.82
2022-11-14T04:40:57.928Z,13.18
2022-11-14T04:41:46.861Z,10.50
2022-11-14T04:43:48.065Z,12.60
2022-11-14T04:46:36.361Z,12.75
2022-11-14T04:47:19.224Z,9.95
2022-11-14T04:50:05.867Z,10.05
2022-11-14T04:52:07.761Z,12.85
2022-11-14T04:52:53.600Z,10.50
2022-11-14T04:54:53.231Z,12.88
2022-11-14T04:55:40.254Z,10.77
2022-11-14T04:57:38.736Z,12.30
2022-11-14T04:58:26.643Z,10.48
2022-11-14T05:00:25.193Z,11.82
2022-11-14T05:01:14.616Z,10.07
2022-11-14T05:03:10.607Z,12.43
2022-11-14T05:04:00.728Z,11.43
2022-11-14T05:06:00.546Z,11.32
2022-11-14T05:06:46.644Z,10.90
2022-11-14T05:08:45.922Z,11.98
2022-11-14T05:09:32.937Z,11.07
2022-11-14T05:11:31.590Z,12.27
2022-11-14T05:14:17.070Z,12.18
2022-11-14T05:15:05.702Z,10.10
2022-11-14T05:17:02.568Z,12.23
2022-11-14T05:17:51.677Z,11.20
2022-11-14T05:19:48.130Z,12.55
2022-11-14T05:20:37.792Z,11.23
2022-11-14T05:22:33.506Z,12.13
2022-11-14T05:23:24.617Z,11.63
2022-11-14T05:25:18.960Z,13.20
2022-11-14T05:26:14.486Z,10.88
2022-11-14T05:28:04.442Z,12.25
2022-11-14T05:29:00.730Z,10.82
2022-11-14T05:30:49.998Z,12.02
2022-11-14T05:31:46.650Z,10.80
2022-11-14T05:33:36.321Z,11.98
2022-11-14T05:34:32.652Z,10.52
2022-11-14T05:36:21.954Z,12.35
2022-11-14T05:40:05.873Z,10.55
2022-11-14T05:41:52.840Z,12.70
2022-11-14T05:42:56.629Z,11.10
2022-11-14T05:44:38.349Z,12.60
2022-11-14T05:45:42.784Z,10.60
2022-11-14T05:47:23.846Z,12.30
2022-11-14T05:50:09.706Z,12.85
2022-11-14T05:51:15.509Z,11.13
2022-11-14T05:52:56.501Z,12.82
2022-11-14T05:54:01.892Z,10.98
2022-11-14T05:55:42.230Z,12.93
2022-11-14T05:56:47.701Z,11.32
2022-11-14T05:58:28.168Z,13.63
2022-11-14T06:01:19.219Z,13.48
2022-11-14T06:02:20.171Z,10.63
2022-11-14T06:04:05.647Z,13.68
2022-11-14T06:05:06.799Z,11.10
2022-11-14T06:06:51.720Z,13.25
2022-11-14T06:07:56.926Z,10.95
2022-11-14T06:10:42.974Z,10.88
2022-11-14T06:12:31.424Z,12.80
2022-11-14T06:13:28.960Z,10.52
2022-11-14T06:15:17.382Z,12.50
2022-11-14T06:16:17.866Z,10.73
2022-11-14T06:18:03.080Z,13.20
2022-11-14T06:19:05.296Z,11.32
2022-11-14T06:20:48.353Z,13.02
2022-11-14T06:21:51.541Z,10.82
2022-11-14T06:23:34.178Z,12.43
2022-11-14T06:24:37.527Z,11.00
2022-11-14T06:26:30.222Z,10.43
2022-11-14T06:32:00.868Z,10.10
2022-11-14T06:34:46.330Z,11.98
2022-11-14T06:37:33.845Z,10.70
2022-11-14T06:40:19.805Z,10.60
2022-11-14T06:43:05.231Z,11.25
2022-11-14T06:45:54.120Z,12.43
2022-11-14T06:48:40.355Z,11.68
2022-11-14T06:51:26.259Z,10.38
2022-11-14T06:54:12.462Z,10.80
2022-11-14T06:56:58.063Z,11.25
2022-11-14T06:59:43.505Z,10.80
2022-11-14T07:02:28.807Z,11.02
2022-11-14T07:05:14.764Z,10.45
2022-11-14T07:08:00.167Z,10.65
2022-11-14T07:10:45.494Z,11.63
2022-11-14T07:13:32.004Z,9.75
2022-11-14T07:16:17.922Z,9.70
2022-11-14T07:19:05.554Z,9.20
2022-11-14T07:21:51.503Z,9.57
2022-11-14T07:24:36.878Z,9.68
2022-11-14T07:27:22.334Z,9.95
2022-11-14T07:30:08.172Z,10.23
2022-11-14T07:35:42.677Z,9.20
2022-11-14T07:38:28.444Z,9.82
2022-11-14T07:41:16.002Z,9.15
2022-11-14T07:44:01.741Z,9.23
2022-11-14T07:46:47.079Z,9.32
2022-11-14T07:49:32.752Z,9.73
2022-11-14T07:52:19.093Z,9.85
2022-11-14T07:55:04.697Z,9.02
2022-11-14T07:57:53.774Z,8.88
2022-11-14T08:00:39.459Z,8.85
2022-11-14T08:03:24.805Z,8.57
2022-11-14T08:06:13.939Z,8.63
2022-11-14T08:08:59.701Z,8.30
2022-11-14T08:11:47.980Z,8.52
2022-11-14T08:14:34.019Z,7.60
2022-11-14T08:17:23.460Z,7.75
2022-11-14T08:20:09.891Z,7.97
2022-11-14T08:23:03.781Z,7.88
2022-11-14T08:25:49.489Z,7.28
2022-11-14T08:28:35.256Z,7.70
2022-11-14T08:31:21.831Z,7.07
2022-11-14T08:34:07.447Z,7.63
2022-11-14T08:36:52.958Z,7.70
2022-11-14T08:39:38.386Z,8.27
2022-11-14T08:42:23.845Z,7.35
2022-11-14T08:45:09.670Z,7.75
2022-11-14T08:47:56.779Z,7.80
2022-11-14T08:50:42.593Z,7.65
2022-11-14T08:53:28.278Z,7.80
2022-11-14T08:56:13.726Z,7.15
2022-11-14T08:58:59.653Z,7.72
2022-11-14T09:04:30.383Z,6.70
2022-11-14T09:07:15.702Z,7.28
2022-11-14T09:10:01.195Z,7.80
2022-11-14T09:12:46.680Z,7.45
2022-11-14T09:15:33.704Z,7.80
2022-11-14T09:18:19.350Z,7.00
2022-11-14T09:21:07.738Z,7.80
2022-11-14T09:23:57.402Z,8.07
2022-11-14T09:26:46.033Z,6.65
2022-11-14T09:29:31.567Z,7.35
2022-11-14T09:32:17.166Z,7.22
2022-11-14T09:37:48.305Z,9.27
2022-11-14T09:40:59.315Z,9.77
2022-11-14T09:44:03.352Z,10.05
2022-11-14T09:47:01.495Z,10.07
2022-11-14T09:49:50.611Z,11.27
2022-11-14T09:52:39.762Z,11.23
2022-11-14T09:55:35.367Z,10.98
2022-11-14T09:58:22.369Z,11.23
2022-11-14T10:01:33.044Z,11.68
2022-11-14T10:04:56.283Z,11.68
2022-11-14T10:08:27.287Z,10.98
2022-11-14T10:11:25.510Z,12.13
2022-11-14T10:14:41.927Z,12.05
2022-11-14T10:17:50.912Z,13.10
2022-11-14T10:20:52.841Z,13.02
2022-11-14T10:24:03.197Z,13.23
2022-11-14T10:27:00.358Z,13.30
2022-11-14T10:30:04.131Z,12.98
2022-11-14T10:33:13.370Z,14.50
2022-11-14T10:36:23.406Z,13.13
2022-11-14T10:39:24.408Z,13.43
2022-11-14T10:42:15.482Z,14.38
2022-11-14T10:45:10.110Z,16.08
2022-11-14T10:48:00.081Z,15.38
2022-11-14T10:50:57.560Z,16.42
2022-11-14T10:53:51.806Z,19.40
2022-11-14T10:56:51.262Z,19.63
2022-11-14T10:59:36.557Z,20.80
2022-11-14T11:02:22.853Z,21.42
2022-11-14T11:05:16.929Z,21.60
2022-11-14T11:08:42.847Z,22.42
2022-11-14T11:11:30.324Z,22.55
2022-11-14T11:14:18.248Z,22.55
2022-11-14T11:17:13.001Z,24.00
2022-11-14T11:20:29.426Z,23.15
2022-11-14T11:23:22.816Z,21.85
2022-11-14T11:26:16.767Z,21.23
2022-11-14T11:29:04.153Z,22.58
2022-11-14T11:31:58.481Z,22.33
2022-11-14T11:34:45.005Z,21.55
2022-11-14T11:37:40.271Z,21.20
2022-11-14T11:40:28.879Z,20.95
2022-11-14T11:43:40.007Z,20.20
2022-11-14T11:46:41.058Z,18.38
2022-11-14T11:49:54.549Z,20.13
2022-11-14T11:52:47.574Z,19.17
2022-11-14T11:55:37.914Z,19.67
2022-11-14T11:58:45.122Z,18.52
2022-11-14T12:01:30.798Z,18.85
2022-11-14T12:07:18.253Z,17.75
2022-11-14T12:10:13.942Z,17.40
2022-11-14T12:13:31.092Z,16.98
2022-11-14T12:16:28.589Z,17.33
2022-11-14T12:20:02.103Z,17.95
2022-11-14T12:22:56.462Z,17.85
2022-11-14T12:25:58.394Z,17.45
2022-11-14T12:29:22.633Z,17.55
2022-11-14T12:32:16.027Z,16.88
2022-11-14T12:35:06.536Z,16.70
2022-11-14T12:37:55.998Z,16.83
2022-11-14T12:40:51.502Z,16.50
2022-11-14T12:43:40.295Z,16.10
2022-11-14T12:46:26.227Z,16.77
2022-11-14T12:49:38.265Z,16.25
2022-11-14T12:52:43.618Z,16.05
2022-11-14T12:55:29.062Z,16.77
2022-11-14T12:58:20.485Z,16.20
2022-11-14T13:01:27.051Z,16.15
2022-11-14T13:07:32.786Z,15.05
2022-11-14T13:10:38.682Z,15.48
2022-11-14T13:13:43.025Z,15.65
2022-11-14T13:16:51.352Z,15.95
2022-11-14T13:20:04.480Z,15.32
2022-11-14T13:22:50.213Z,15.70
2022-11-14T13:25:35.586Z,15.15
2022-11-14T13:28:44.265Z,14.82
2022-11-14T13:31:36.118Z,14.48
2022-11-14T13:34:43.484Z,15.88
2022-11-14T13:38:02.018Z,15.57
2022-11-14T13:40:59.898Z,15.65
2022-11-14T13:44:12.399Z,17.15
2022-11-14T13:47:13.033Z,14.85
2022-11-14T13:50:11.869Z,13.75
2022-11-14T13:52:57.630Z,12.93
2022-11-14T13:55:59.595Z,13.40
2022-11-14T13:58:45.971Z,14.02
2022-11-14T14:02:10.652Z,15.63
2022-11-14T14:05:13.542Z,16.20
2022-11-14T14:08:20.264Z,15.30
2022-11-14T14:11:40.163Z,16.67
2022-11-14T14:14:52.547Z,16.33
2022-11-14T14:18:03.676Z,16.00
2022-11-14T14:21:27.209Z,16.73
2022-11-14T14:24:18.606Z,15.75
2022-11-14T14:27:27.983Z,15.50
2022-11-14T14:30:16.362Z,15.85
2022-11-14T14:33:07.846Z,16.05
2022-11-14T14:35:53.851Z,15.88
2022-11-14T14:38:39.662Z,17.27
2022-11-14T14:41:30.490Z,16.83
2022-11-14T14:44:37.178Z,16.45
2022-11-14T14:50:26.482Z,16.17
2022-11-14T14:53:22.985Z,15.70
2022-11-14T14:59:16.927Z,16.65
2022-11-14T15:02:02.716Z,17.00
2022-11-14T15:07:34.302Z,15.95
2022-11-14T15:10:23.317Z,16.42
2022-11-14T15:13:14.341Z,15.48
2022-11-14T15:16:01.745Z,15.55
2022-11-14T15:18:48.865Z,15.60
2022-11-14T15:21:34.246Z,16.63
2022-11-14T15:24:22.025Z,14.98
2022-11-14T15:27:13.828Z,14.30
2022-11-14T15:30:06.577Z,13.82
2022-11-14T15:32:55.162Z,13.80
2022-11-14T15:35:41.123Z,13.77
2022-11-14T15:41:33.749Z,13.00
2022-11-14T15:44:32.599Z,13.05
2022-11-14T15:47:19.855Z,13.07
2022-11-14T15:50:21.426Z,13.45
2022-11-14T15:53:21.475Z,12.38
2022-11-14T15:56:10.698Z,12.27
2022-11-14T15:58:56.375Z,12.02
2022-11-14T16:01:44.334Z,12.02
2022-11-14T16:04:35.596Z,11.38
2022-11-14T16:07:22.182Z,12.25
2022-11-14T16:10:20.138Z,11.40
2022-11-14T16:13:06.379Z,11.52
2022-11-14T16:15:51.820Z,10.80
2022-11-14T16:18:37.314Z,11.73
2022-11-14T16:21:22.884Z,11.88
2022-11-14T16:24:18.406Z,11.98
2022-11-14T16:27:04.009Z,11.97
2022-11-14T16:29:49.758Z,11.30
2022-11-14T16:32:35.293Z,11.98
2022-11-14T16:35:22.900Z,11.38
2022-11-14T16:38:12.188Z,11.02
2022-11-14T16:41:00.111Z,11.75
2022-11-14T16:43:45.899Z,10.85
2022-11-14T16:49:19.469Z,10.20
2022-11-14T16:52:08.508Z,11.00
2022-11-14T16:54:53.973Z,11.40
2022-11-14T16:57:40.502Z,11.52
2022-11-14T17:00:26.069Z,11.20
2022-11-14T17:03:11.480Z,11.52
2022-11-14T17:05:56.923Z,11.55
2022-11-14T17:08:42.269Z,11.45
2022-11-14T17:11:28.177Z,11.82
2022-11-14T17:17:01.658Z,11.15
2022-11-14T17:19:47.161Z,11.75
2022-11-14T17:22:32.485Z,11.15
2022-11-14T17:25:17.765Z,11.20
2022-11-14T17:28:03.421Z,12.60
2022-11-14T17:30:49.011Z,10.98
2022-11-14T17:33:35.037Z,11.30
2022-11-14T17:36:21.676Z,11.75
2022-11-14T17:39:07.533Z,11.43
2022-11-14T17:41:53.151Z,12.32
2022-11-14T17:44:38.834Z,13.15
2022-11-14T17:47:24.195Z,12.38
2022-11-14T17:50:09.719Z,14.25
2022-11-14T17:52:55.380Z,13.38
2022-11-14T17:55:41.166Z,12.30
2022-11-14T18:01:15.961Z,13.97
2022-11-14T18:04:06.025Z,13.10
2022-11-14T18:06:53.219Z,13.40
2022-11-14T18:09:38.938Z,13.25
2022-11-14T18:12:24.680Z,22.05
2022-11-14T18:15:10.171Z,17.70
2022-11-14T18:17:55.723Z,15.88
2022-11-14T18:20:41.363Z,14.98
2022-11-14T18:23:26.791Z,12.48
2022-11-14T18:26:16.916Z,13.88
2022-11-14T18:29:02.819Z,14.82
2022-11-14T18:31:48.358Z,16.38
2022-11-14T18:34:36.801Z,16.42
2022-11-14T18:37:23.002Z,13.68
2022-11-14T18:40:16.122Z,12.57
2022-11-14T18:43:02.725Z,12.02
2022-11-14T18:45:48.045Z,11.13
2022-11-14T18:48:35.186Z,12.13
2022-11-14T18:51:23.682Z,12.23
2022-11-14T18:54:14.429Z,10.88
2022-11-14T18:57:00.399Z,16.27
2022-11-14T18:59:45.854Z,16.13
2022-11-14T19:02:31.326Z,14.25
2022-11-14T19:05:17.384Z,15.00
2022-11-14T19:10:50.496Z,12.68
2022-11-14T19:13:35.974Z,17.67
2022-11-14T19:16:21.451Z,16.88
2022-11-14T19:19:07.820Z,12.45
2022-11-14T19:21:53.283Z,23.35
2022-11-14T19:24:42.846Z,16.45
2022-11-14T19:27:28.045Z,33.10
2022-11-14T19:30:15.543Z,28.83
2022-11-14T19:33:02.932Z,20.02
2022-11-14T19:35:48.721Z,16.60
2022-11-14T19:38:34.309Z,14.32
2022-11-14T19:41:21.756Z,12.18
2022-11-14T19:44:07.222Z,12.00
2022-11-14T19:46:52.655Z,12.27
2022-11-14T19:49:38.140Z,11.90
2022-11-14T19:55:09.294Z,16.95
2022-11-14T19:57:54.624Z,21.67
2022-11-14T20:00:40.176Z,20.02
2022-11-14T20:03:25.535Z,18.75
2022-11-14T20:06:16.415Z,16.52
2022-11-14T20:09:10.340Z,14.05
2022-11-14T20:11:55.808Z,12.57
2022-11-14T20:14:41.165Z,11.27
2022-11-14T20:17:26.875Z,11.90
2022-11-14T20:20:12.634Z,11.77
2022-11-14T20:22:58.014Z,11.38
2022-11-14T20:25:43.390Z,10.77
2022-11-14T20:28:29.083Z,10.55
2022-11-14T20:31:20.049Z,9.63
2022-11-14T20:34:05.491Z,10.40
2022-11-14T20:39:56.751Z,21.60
2022-11-14T20:42:42.282Z,14.57
2022-11-14T20:45:28.414Z,12.50
2022-11-14T20:48:13.625Z,10.57
2022-11-14T20:51:15.511Z,10.52
2022-11-14T20:54:00.815Z,11.63
2022-11-14T20:56:46.266Z,10.55
2022-11-14T20:59:31.805Z,9.27
2022-11-14T21:02:17.279Z,9.60
2022-11-14T21:05:03.402Z,9.85
2022-11-14T21:07:48.665Z,9.18
2022-11-14T21:10:47.482Z,9.27
2022-11-14T21:13:56.282Z,13.43
2022-11-14T21:16:42.061Z,62.85
2022-11-14T21:22:14.882Z,20.88
2022-11-14T21:25:01.742Z,14.93
2022-11-14T21:27:46.967Z,18.55
2022-11-14T21:30:33.367Z,15.40
2022-11-14T21:33:18.833Z,18.33
2022-11-14T21:39:16.283Z,13.25
2022-11-14T21:42:02.548Z,10.55
2022-11-14T21:44:48.103Z,10.30
2022-11-14T21:47:34.458Z,9.82
2022-11-14T21:50:19.957Z,10.30
2022-11-14T21:53:15.576Z,10.15
2022-11-14T21:56:17.893Z,10.40
2022-11-14T21:59:14.440Z,10.75
2022-11-14T22:02:18.863Z,10.23
2022-11-14T22:05:04.822Z,10.25
2022-11-14T22:07:50.604Z,10.23
2022-11-14T22:10:36.179Z,10.20
2022-11-14T22:13:21.681Z,11.10
2022-11-14T22:16:08.879Z,35.65
2022-11-14T22:18:59.157Z,45.15
2022-11-14T22:21:48.414Z,33.20
2022-11-14T22:24:33.791Z,24.95
2022-11-14T22:27:19.254Z,28.23
2022-11-14T22:30:05.053Z,27.05
2022-11-14T22:35:35.858Z,20.15
2022-11-14T22:38:21.247Z,13.63
2022-11-14T22:41:11.106Z,13.63
2022-11-14T22:43:57.478Z,12.18
2022-11-14T22:46:43.154Z,12.35
2022-11-14T22:49:28.477Z,12.10
2022-11-14T22:52:13.934Z,12.10
2022-11-14T22:54:59.307Z,11.48
2022-11-14T22:57:44.861Z,11.25
2022-11-14T23:00:30.242Z,11.45
2022-11-14T23:03:20.540Z,11.85
2022-11-14T23:06:08.619Z,11.27
2022-11-14T23:08:55.003Z,11.30
2022-11-14T23:11:40.536Z,11.63
2022-11-14T23:14:26.018Z,11.70
2022-11-14T23:17:11.566Z,11.52
2022-11-14T23:19:57.457Z,10.93
2022-11-14T23:22:42.844Z,11.27
2022-11-14T23:25:28.298Z,10.88
2022-11-14T23:28:13.751Z,10.43
2022-11-14T23:31:00.130Z,11.95
2022-11-14T23:33:47.055Z,11.60
2022-11-14T23:36:32.748Z,11.15
2022-11-14T23:39:18.493Z,11.48
2022-11-14T23:44:49.142Z,10.73
2022-11-14T23:47:34.740Z,11.05
2022-11-14T23:50:20.623Z,10.18
2022-11-14T23:53:05.955Z,11.27
2022-11-14T23:55:56.519Z,10.65
2022-11-14T23:58:42.042Z,10.98
